sensor_id;sensor_type;location;lat;lon;timestamp;temperature;humidity
22966;DHT22;11649;48.090;9.754;2022-09-09T00:07:14;13.60;99.90
22966;DHT22;11649;48.090;9.754;2022-09-09T00:12:15;13.20;99.90
22966;DHT22;11649;48.090;9.754;2022-09-09T00:14:51;13.20;99.90
22966;DHT22;11649;48.090;9.754;2022-09-09T00:17:24;13.10;99.90
22966;DHT22;11649;48.090;9.754;2022-09-09T00:19:59;13.10;99.90
22966;DHT22;11649;48.090;9.754;2022-09-09T00:22:29;13.00;99.90
22966;DHT22;11649;48.090;9.754;2022-09-09T00:25:11;12.90;99.90
22966;DHT22;11649;48.090;9.754;2022-09-09T00:27:44;12.80;99.90
22966;DHT22;11649;48.090;9.754;2022-09-09T00:32:41;12.90;99.90
22966;DHT22;11649;48.090;9.754;2022-09-09T00:35:33;13.00;99.90
22966;DHT22;11649;48.090;9.754;2022-09-09T00:38:08;13.00;99.90
22966;DHT22;11649;48.090;9.754;2022-09-09T00:40:45;12.90;99.90
22966;DHT22;11649;48.090;9.754;2022-09-09T00:48:22;12.80;99.90
22966;DHT22;11649;48.090;9.754;2022-09-09T00:50:56;13.10;99.90
22966;DHT22;11649;48.090;9.754;2022-09-09T00:56:37;12.70;99.90
22966;DHT22;11649;48.090;9.754;2022-09-09T01:02:43;12.90;99.90
22966;DHT22;11649;48.090;9.754;2022-09-09T01:05:29;12.90;99.90
22966;DHT22;11649;48.090;9.754;2022-09-09T01:07:58;12.80;99.90
22966;DHT22;11649;48.090;9.754;2022-09-09T01:10:50;12.70;99.90
22966;DHT22;11649;48.090;9.754;2022-09-09T01:13:29;12.70;99.90
22966;DHT22;11649;48.090;9.754;2022-09-09T01:16:06;12.60;99.90
22966;DHT22;11649;48.090;9.754;2022-09-09T01:18:43;12.70;99.90
22966;DHT22;11649;48.090;9.754;2022-09-09T01:21:40;12.80;99.90
22966;DHT22;11649;48.090;9.754;2022-09-09T01:24:35;12.80;99.90
22966;DHT22;11649;48.090;9.754;2022-09-09T01:27:06;12.60;99.90
22966;DHT22;11649;48.090;9.754;2022-09-09T01:29:34;13.10;99.90
22966;DHT22;11649;48.090;9.754;2022-09-09T01:35:31;12.70;99.90
22966;DHT22;11649;48.090;9.754;2022-09-09T01:37:59;12.80;99.90
22966;DHT22;11649;48.090;9.754;2022-09-09T01:40:32;12.80;99.90
22966;DHT22;11649;48.090;9.754;2022-09-09T01:43:11;12.90;99.90
22966;DHT22;11649;48.090;9.754;2022-09-09T01:45:40;12.90;99.90
22966;DHT22;11649;48.090;9.754;2022-09-09T01:48:09;12.60;99.90
22966;DHT22;11649;48.090;9.754;2022-09-09T01:50:35;12.90;99.90
22966;DHT22;11649;48.090;9.754;2022-09-09T01:53:02;13.70;99.90
22966;DHT22;11649;48.090;9.754;2022-09-09T01:55:46;13.50;99.90
22966;DHT22;11649;48.090;9.754;2022-09-09T02:01:52;13.00;99.90
22966;DHT22;11649;48.090;9.754;2022-09-09T02:03:52;12.70;99.90
22966;DHT22;11649;48.090;9.754;2022-09-09T02:06:34;12.20;99.90
22966;DHT22;11649;48.090;9.754;2022-09-09T02:09:04;12.50;99.90
22966;DHT22;11649;48.090;9.754;2022-09-09T02:11:33;12.70;99.90
22966;DHT22;11649;48.090;9.754;2022-09-09T02:14:05;12.70;99.90
22966;DHT22;11649;48.090;9.754;2022-09-09T02:16:42;12.50;99.90
22966;DHT22;11649;48.090;9.754;2022-09-09T02:19:18;12.40;99.90
22966;DHT22;11649;48.090;9.754;2022-09-09T02:21:51;12.40;99.90
22966;DHT22;11649;48.090;9.754;2022-09-09T02:24:20;12.20;99.90
22966;DHT22;11649;48.090;9.754;2022-09-09T02:26:50;12.50;99.90
22966;DHT22;11649;48.090;9.754;2022-09-09T02:29:25;12.80;99.90
22966;DHT22;11649;48.090;9.754;2022-09-09T02:31:55;12.60;99.90
22966;DHT22;11649;48.090;9.754;2022-09-09T02:34:25;12.60;99.90
22966;DHT22;11649;48.090;9.754;2022-09-09T02:36:56;13.10;99.90
22966;DHT22;11649;48.090;9.754;2022-09-09T02:39:23;12.20;99.90
22966;DHT22;11649;48.090;9.754;2022-09-09T02:41:50;12.50;99.90
22966;DHT22;11649;48.090;9.754;2022-09-09T02:44:18;12.80;99.90
22966;DHT22;11649;48.090;9.754;2022-09-09T02:47:14;12.30;99.90
22966;DHT22;11649;48.090;9.754;2022-09-09T02:49:47;12.60;99.90
22966;DHT22;11649;48.090;9.754;2022-09-09T02:52:47;12.40;99.90
22966;DHT22;11649;48.090;9.754;2022-09-09T02:55:24;12.40;99.90
22966;DHT22;11649;48.090;9.754;2022-09-09T02:57:55;12.40;99.90
22966;DHT22;11649;48.090;9.754;2022-09-09T03:00:27;12.60;99.90
22966;DHT22;11649;48.090;9.754;2022-09-09T03:02:54;12.90;99.90
22966;DHT22;11649;48.090;9.754;2022-09-09T03:05:21;12.70;99.90
22966;DHT22;11649;48.090;9.754;2022-09-09T03:07:48;12.40;99.90
22966;DHT22;11649;48.090;9.754;2022-09-09T03:10:17;12.80;99.90
22966;DHT22;11649;48.090;9.754;2022-09-09T03:12:44;12.90;99.90
22966;DHT22;11649;48.090;9.754;2022-09-09T03:15:10;12.70;99.90
22966;DHT22;11649;48.090;9.754;2022-09-09T03:17:37;13.10;99.90
22966;DHT22;11649;48.090;9.754;2022-09-09T03:20:04;12.80;99.90
22966;DHT22;11649;48.090;9.754;2022-09-09T03:22:31;12.70;99.90
22966;DHT22;11649;48.090;9.754;2022-09-09T03:24:59;12.70;99.90
22966;DHT22;11649;48.090;9.754;2022-09-09T03:27:25;12.70;99.90
22966;DHT22;11649;48.090;9.754;2022-09-09T03:29:52;14.20;99.90
22966;DHT22;11649;48.090;9.754;2022-09-09T03:32:19;13.00;99.90
22966;DHT22;11649;48.090;9.754;2022-09-09T03:34:48;13.10;99.90
22966;DHT22;11649;48.090;9.754;2022-09-09T03:37:19;13.10;99.90
22966;DHT22;11649;48.090;9.754;2022-09-09T03:39:46;12.80;99.90
22966;DHT22;11649;48.090;9.754;2022-09-09T03:42:14;13.80;99.90
22966;DHT22;11649;48.090;9.754;2022-09-09T03:44:41;13.20;99.90
22966;DHT22;11649;48.090;9.754;2022-09-09T03:47:08;14.10;99.90
22966;DHT22;11649;48.090;9.754;2022-09-09T03:49:35;14.30;99.90
22966;DHT22;11649;48.090;9.754;2022-09-09T03:52:02;12.80;99.90
22966;DHT22;11649;48.090;9.754;2022-09-09T03:54:28;14.20;99.90
22966;DHT22;11649;48.090;9.754;2022-09-09T03:56:55;13.10;99.90
22966;DHT22;11649;48.090;9.754;2022-09-09T03:59:22;13.90;99.90
22966;DHT22;11649;48.090;9.754;2022-09-09T04:01:49;13.50;99.90
22966;DHT22;11649;48.090;9.754;2022-09-09T04:04:16;14.90;99.90
22966;DHT22;11649;48.090;9.754;2022-09-09T04:06:43;13.00;99.90
22966;DHT22;11649;48.090;9.754;2022-09-09T04:09:09;13.20;99.90
22966;DHT22;11649;48.090;9.754;2022-09-09T04:11:36;13.40;99.90
22966;DHT22;11649;48.090;9.754;2022-09-09T04:14:03;13.50;99.90
22966;DHT22;11649;48.090;9.754;2022-09-09T04:16:33;13.80;99.90
22966;DHT22;11649;48.090;9.754;2022-09-09T04:19:00;13.70;99.90
22966;DHT22;11649;48.090;9.754;2022-09-09T04:21:27;14.00;99.90
22966;DHT22;11649;48.090;9.754;2022-09-09T04:23:54;15.20;99.90
22966;DHT22;11649;48.090;9.754;2022-09-09T04:26:21;13.70;99.90
22966;DHT22;11649;48.090;9.754;2022-09-09T04:28:48;13.60;99.90
22966;DHT22;11649;48.090;9.754;2022-09-09T04:31:20;13.40;99.90
22966;DHT22;11649;48.090;9.754;2022-09-09T04:33:48;13.70;99.90
22966;DHT22;11649;48.090;9.754;2022-09-09T04:36:16;13.40;99.90
22966;DHT22;11649;48.090;9.754;2022-09-09T04:38:43;13.40;99.90
22966;DHT22;11649;48.090;9.754;2022-09-09T04:41:11;13.50;99.90
22966;DHT22;11649;48.090;9.754;2022-09-09T04:43:39;13.60;99.90
22966;DHT22;11649;48.090;9.754;2022-09-09T04:46:06;14.80;99.90
22966;DHT22;11649;48.090;9.754;2022-09-09T04:48:33;13.90;99.90
22966;DHT22;11649;48.090;9.754;2022-09-09T04:51:03;14.00;99.90
22966;DHT22;11649;48.090;9.754;2022-09-09T04:53:31;14.20;99.90
22966;DHT22;11649;48.090;9.754;2022-09-09T04:56:07;13.90;99.90
22966;DHT22;11649;48.090;9.754;2022-09-09T04:58:34;14.20;99.90
22966;DHT22;11649;48.090;9.754;2022-09-09T05:01:04;14.20;99.90
22966;DHT22;11649;48.090;9.754;2022-09-09T05:03:31;14.30;99.90
22966;DHT22;11649;48.090;9.754;2022-09-09T05:06:12;14.00;99.90
22966;DHT22;11649;48.090;9.754;2022-09-09T05:08:40;14.10;99.90
22966;DHT22;11649;48.090;9.754;2022-09-09T05:11:27;13.90;99.90
22966;DHT22;11649;48.090;9.754;2022-09-09T05:13:55;14.00;99.90
22966;DHT22;11649;48.090;9.754;2022-09-09T05:16:23;14.00;99.90
22966;DHT22;11649;48.090;9.754;2022-09-09T05:18:50;14.40;99.90
22966;DHT22;11649;48.090;9.754;2022-09-09T05:21:19;14.90;99.90
22966;DHT22;11649;48.090;9.754;2022-09-09T05:23:46;14.00;99.90
22966;DHT22;11649;48.090;9.754;2022-09-09T05:26:16;14.70;99.90
22966;DHT22;11649;48.090;9.754;2022-09-09T05:28:44;13.80;99.90
22966;DHT22;11649;48.090;9.754;2022-09-09T05:31:14;14.30;99.90
22966;DHT22;11649;48.090;9.754;2022-09-09T05:33:43;13.80;99.90
22966;DHT22;11649;48.090;9.754;2022-09-09T05:36:14;14.90;99.90
22966;DHT22;11649;48.090;9.754;2022-09-09T05:38:42;14.50;99.90
22966;DHT22;11649;48.090;9.754;2022-09-09T05:41:10;13.90;99.90
22966;DHT22;11649;48.090;9.754;2022-09-09T05:43:38;14.20;99.90
22966;DHT22;11649;48.090;9.754;2022-09-09T05:46:10;13.90;99.90
22966;DHT22;11649;48.090;9.754;2022-09-09T05:48:39;14.80;99.90
22966;DHT22;11649;48.090;9.754;2022-09-09T05:51:08;15.00;99.90
22966;DHT22;11649;48.090;9.754;2022-09-09T05:53:36;14.40;99.90
22966;DHT22;11649;48.090;9.754;2022-09-09T05:56:05;14.40;99.90
22966;DHT22;11649;48.090;9.754;2022-09-09T05:58:33;14.50;99.90
22966;DHT22;11649;48.090;9.754;2022-09-09T06:01:11;15.20;99.90
22966;DHT22;11649;48.090;9.754;2022-09-09T06:03:40;15.60;99.90
22966;DHT22;11649;48.090;9.754;2022-09-09T06:06:09;14.50;99.90
22966;DHT22;11649;48.090;9.754;2022-09-09T06:08:39;14.60;99.90
22966;DHT22;11649;48.090;9.754;2022-09-09T06:11:23;15.70;99.90
22966;DHT22;11649;48.090;9.754;2022-09-09T06:13:51;14.80;99.90
22966;DHT22;11649;48.090;9.754;2022-09-09T06:16:24;14.80;99.90
22966;DHT22;11649;48.090;9.754;2022-09-09T06:18:52;15.20;99.90
22966;DHT22;11649;48.090;9.754;2022-09-09T06:21:23;14.50;99.90
22966;DHT22;11649;48.090;9.754;2022-09-09T06:23:50;14.60;99.90
22966;DHT22;11649;48.090;9.754;2022-09-09T06:26:34;14.50;99.90
22966;DHT22;11649;48.090;9.754;2022-09-09T06:29:02;14.70;99.90
22966;DHT22;11649;48.090;9.754;2022-09-09T06:31:33;14.80;99.90
22966;DHT22;11649;48.090;9.754;2022-09-09T06:34:01;15.50;99.90
22966;DHT22;11649;48.090;9.754;2022-09-09T06:36:33;14.70;99.90
22966;DHT22;11649;48.090;9.754;2022-09-09T06:39:01;14.90;99.90
22966;DHT22;11649;48.090;9.754;2022-09-09T06:41:29;14.80;99.90
22966;DHT22;11649;48.090;9.754;2022-09-09T06:43:56;14.90;99.90
22966;DHT22;11649;48.090;9.754;2022-09-09T06:46:28;15.00;99.90
22966;DHT22;11649;48.090;9.754;2022-09-09T06:48:56;15.00;99.90
22966;DHT22;11649;48.090;9.754;2022-09-09T06:51:29;15.30;99.90
22966;DHT22;11649;48.090;9.754;2022-09-09T06:53:58;15.30;99.90
22966;DHT22;11649;48.090;9.754;2022-09-09T06:56:30;15.80;99.90
22966;DHT22;11649;48.090;9.754;2022-09-09T06:58:59;15.70;99.90
22966;DHT22;11649;48.090;9.754;2022-09-09T07:01:32;15.20;99.90
22966;DHT22;11649;48.090;9.754;2022-09-09T07:03:59;15.50;99.90
22966;DHT22;11649;48.090;9.754;2022-09-09T07:06:35;15.30;99.90
22966;DHT22;11649;48.090;9.754;2022-09-09T07:09:05;15.30;99.90
22966;DHT22;11649;48.090;9.754;2022-09-09T07:11:36;15.60;99.90
22966;DHT22;11649;48.090;9.754;2022-09-09T07:14:04;15.30;99.90
22966;DHT22;11649;48.090;9.754;2022-09-09T07:16:30;15.10;99.90
22966;DHT22;11649;48.090;9.754;2022-09-09T07:19:00;16.10;99.90
22966;DHT22;11649;48.090;9.754;2022-09-09T07:21:29;15.10;99.90
22966;DHT22;11649;48.090;9.754;2022-09-09T07:23:56;15.10;99.90
22966;DHT22;11649;48.090;9.754;2022-09-09T07:26:26;15.30;99.90
22966;DHT22;11649;48.090;9.754;2022-09-09T07:28:54;15.30;99.90
22966;DHT22;11649;48.090;9.754;2022-09-09T07:31:25;15.70;99.90
22966;DHT22;11649;48.090;9.754;2022-09-09T07:33:52;15.30;99.90
22966;DHT22;11649;48.090;9.754;2022-09-09T07:36:25;15.30;99.90
22966;DHT22;11649;48.090;9.754;2022-09-09T07:39:07;16.20;99.90
22966;DHT22;11649;48.090;9.754;2022-09-09T07:41:44;15.50;99.90
22966;DHT22;11649;48.090;9.754;2022-09-09T07:44:13;15.70;99.90
22966;DHT22;11649;48.090;9.754;2022-09-09T07:46:40;15.60;99.90
22966;DHT22;11649;48.090;9.754;2022-09-09T07:49:09;17.10;99.90
22966;DHT22;11649;48.090;9.754;2022-09-09T07:51:38;15.60;99.90
22966;DHT22;11649;48.090;9.754;2022-09-09T07:54:08;16.70;99.90
22966;DHT22;11649;48.090;9.754;2022-09-09T07:56:36;16.70;99.90
22966;DHT22;11649;48.090;9.754;2022-09-09T07:59:06;16.70;99.90
22966;DHT22;11649;48.090;9.754;2022-09-09T08:01:36;16.60;99.90
22966;DHT22;11649;48.090;9.754;2022-09-09T08:04:17;16.70;99.90
22966;DHT22;11649;48.090;9.754;2022-09-09T08:06:50;16.10;99.90
22966;DHT22;11649;48.090;9.754;2022-09-09T08:09:19;16.10;99.90
22966;DHT22;11649;48.090;9.754;2022-09-09T08:11:47;17.00;99.90
22966;DHT22;11649;48.090;9.754;2022-09-09T08:14:14;16.50;99.90
22966;DHT22;11649;48.090;9.754;2022-09-09T08:16:47;16.50;99.90
22966;DHT22;11649;48.090;9.754;2022-09-09T08:19:14;16.50;99.90
22966;DHT22;11649;48.090;9.754;2022-09-09T08:21:44;16.70;99.90
22966;DHT22;11649;48.090;9.754;2022-09-09T08:24:11;17.10;99.90
22966;DHT22;11649;48.090;9.754;2022-09-09T08:26:42;16.70;99.90
22966;DHT22;11649;48.090;9.754;2022-09-09T08:29:11;17.50;99.90
22966;DHT22;11649;48.090;9.754;2022-09-09T08:31:49;17.20;99.90
22966;DHT22;11649;48.090;9.754;2022-09-09T08:34:17;16.60;99.90
22966;DHT22;11649;48.090;9.754;2022-09-09T08:36:48;16.70;99.90
22966;DHT22;11649;48.090;9.754;2022-09-09T08:39:17;17.00;99.90
22966;DHT22;11649;48.090;9.754;2022-09-09T08:42:17;16.60;99.90
22966;DHT22;11649;48.090;9.754;2022-09-09T08:45:20;16.70;99.90
22966;DHT22;11649;48.090;9.754;2022-09-09T08:48:10;16.90;99.90
22966;DHT22;11649;48.090;9.754;2022-09-09T08:50:39;17.00;99.90
22966;DHT22;11649;48.090;9.754;2022-09-09T08:55:47;17.30;99.90
22966;DHT22;11649;48.090;9.754;2022-09-09T08:58:28;17.10;99.90
22966;DHT22;11649;48.090;9.754;2022-09-09T09:03:58;17.10;99.90
22966;DHT22;11649;48.090;9.754;2022-09-09T09:06:34;17.20;99.90
22966;DHT22;11649;48.090;9.754;2022-09-09T09:11:53;17.30;99.90
22966;DHT22;11649;48.090;9.754;2022-09-09T09:14:22;17.30;99.90
22966;DHT22;11649;48.090;9.754;2022-09-09T09:17:05;17.80;99.90
22966;DHT22;11649;48.090;9.754;2022-09-09T09:19:34;17.40;99.90
22966;DHT22;11649;48.090;9.754;2022-09-09T09:27:13;17.60;99.90
22966;DHT22;11649;48.090;9.754;2022-09-09T09:29:42;17.80;99.90
22966;DHT22;11649;48.090;9.754;2022-09-09T09:32:33;17.50;99.90
22966;DHT22;11649;48.090;9.754;2022-09-09T09:35:06;17.50;99.90
22966;DHT22;11649;48.090;9.754;2022-09-09T09:37:36;17.50;99.90
22966;DHT22;11649;48.090;9.754;2022-09-09T09:40:15;17.50;99.90
22966;DHT22;11649;48.090;9.754;2022-09-09T09:42:53;17.50;99.90
22966;DHT22;11649;48.090;9.754;2022-09-09T09:45:47;17.60;99.90
22966;DHT22;11649;48.090;9.754;2022-09-09T09:48:34;17.60;99.90
22966;DHT22;11649;48.090;9.754;2022-09-09T09:51:09;17.70;99.90
22966;DHT22;11649;48.090;9.754;2022-09-09T09:53:38;18.10;99.90
22966;DHT22;11649;48.090;9.754;2022-09-09T09:56:08;17.70;99.90
22966;DHT22;11649;48.090;9.754;2022-09-09T10:04:15;17.90;99.90
22966;DHT22;11649;48.090;9.754;2022-09-09T10:06:42;18.00;99.90
22966;DHT22;11649;48.090;9.754;2022-09-09T10:09:25;18.10;99.90
22966;DHT22;11649;48.090;9.754;2022-09-09T10:12:26;18.50;99.90
22966;DHT22;11649;48.090;9.754;2022-09-09T10:26:47;18.70;99.80
22966;DHT22;11649;48.090;9.754;2022-09-09T10:34:47;18.70;99.90
22966;DHT22;11649;48.090;9.754;2022-09-09T10:46:24;19.00;96.20
22966;DHT22;11649;48.090;9.754;2022-09-09T10:49:18;19.00;99.90
22966;DHT22;11649;48.090;9.754;2022-09-09T10:52:13;19.00;99.00
22966;DHT22;11649;48.090;9.754;2022-09-09T10:55:06;19.00;99.10
22966;DHT22;11649;48.090;9.754;2022-09-09T10:57:50;18.80;99.20
22966;DHT22;11649;48.090;9.754;2022-09-09T11:00:24;18.80;98.50
22966;DHT22;11649;48.090;9.754;2022-09-09T11:02:58;19.00;99.90
22966;DHT22;11649;48.090;9.754;2022-09-09T11:08:05;19.40;95.50
22966;DHT22;11649;48.090;9.754;2022-09-09T11:13:35;19.50;91.90
22966;DHT22;11649;48.090;9.754;2022-09-09T11:16:30;19.40;91.30
22966;DHT22;11649;48.090;9.754;2022-09-09T11:21:49;19.30;91.60
22966;DHT22;11649;48.090;9.754;2022-09-09T11:24:33;19.20;91.50
22966;DHT22;11649;48.090;9.754;2022-09-09T11:27:15;19.00;94.50
22966;DHT22;11649;48.090;9.754;2022-09-09T11:36:13;19.60;90.50
22966;DHT22;11649;48.090;9.754;2022-09-09T11:38:48;19.70;93.30
22966;DHT22;11649;48.090;9.754;2022-09-09T11:41:19;19.90;89.20
22966;DHT22;11649;48.090;9.754;2022-09-09T11:43:51;20.20;90.10
22966;DHT22;11649;48.090;9.754;2022-09-09T11:46:34;20.00;80.90
22966;DHT22;11649;48.090;9.754;2022-09-09T11:49:04;19.90;82.40
22966;DHT22;11649;48.090;9.754;2022-09-09T11:51:33;19.90;82.20
22966;DHT22;11649;48.090;9.754;2022-09-09T11:54:28;19.70;81.40
22966;DHT22;11649;48.090;9.754;2022-09-09T11:56:56;19.60;86.00
22966;DHT22;11649;48.090;9.754;2022-09-09T11:59:32;19.90;83.30
22966;DHT22;11649;48.090;9.754;2022-09-09T12:02:23;20.00;86.60
22966;DHT22;11649;48.090;9.754;2022-09-09T12:04:55;19.90;85.00
22966;DHT22;11649;48.090;9.754;2022-09-09T12:07:32;20.00;83.50
22966;DHT22;11649;48.090;9.754;2022-09-09T12:10:30;19.70;83.60
22966;DHT22;11649;48.090;9.754;2022-09-09T12:13:20;19.60;82.70
22966;DHT22;11649;48.090;9.754;2022-09-09T12:15:50;19.50;80.70
22966;DHT22;11649;48.090;9.754;2022-09-09T12:24:13;19.70;81.20
22966;DHT22;11649;48.090;9.754;2022-09-09T12:32:15;19.80;77.60
22966;DHT22;11649;48.090;9.754;2022-09-09T12:34:52;20.00;76.00
22966;DHT22;11649;48.090;9.754;2022-09-09T12:37:35;20.00;76.50
22966;DHT22;11649;48.090;9.754;2022-09-09T12:40:29;20.10;75.70
22966;DHT22;11649;48.090;9.754;2022-09-09T12:42:58;20.10;75.30
22966;DHT22;11649;48.090;9.754;2022-09-09T12:45:32;20.20;75.60
22966;DHT22;11649;48.090;9.754;2022-09-09T12:48:03;20.20;75.10
22966;DHT22;11649;48.090;9.754;2022-09-09T12:50:43;20.30;76.80
22966;DHT22;11649;48.090;9.754;2022-09-09T12:53:17;20.50;77.50
22966;DHT22;11649;48.090;9.754;2022-09-09T12:56:06;20.50;74.60
22966;DHT22;11649;48.090;9.754;2022-09-09T12:58:36;20.80;72.70
22966;DHT22;11649;48.090;9.754;2022-09-09T13:01:05;21.10;72.80
22966;DHT22;11649;48.090;9.754;2022-09-09T13:03:33;21.00;64.80
22966;DHT22;11649;48.090;9.754;2022-09-09T13:06:20;21.10;65.20
22966;DHT22;11649;48.090;9.754;2022-09-09T13:08:56;21.00;62.20
22966;DHT22;11649;48.090;9.754;2022-09-09T13:11:29;21.00;63.80
22966;DHT22;11649;48.090;9.754;2022-09-09T13:13:57;21.20;62.40
22966;DHT22;11649;48.090;9.754;2022-09-09T13:16:32;21.30;62.50
22966;DHT22;11649;48.090;9.754;2022-09-09T13:19:14;21.30;62.60
22966;DHT22;11649;48.090;9.754;2022-09-09T13:21:43;21.60;61.60
22966;DHT22;11649;48.090;9.754;2022-09-09T13:27:04;21.50;63.20
22966;DHT22;11649;48.090;9.754;2022-09-09T13:29:32;21.60;60.90
22966;DHT22;11649;48.090;9.754;2022-09-09T13:32:17;21.60;59.70
22966;DHT22;11649;48.090;9.754;2022-09-09T13:34:54;21.90;59.40
22966;DHT22;11649;48.090;9.754;2022-09-09T13:37:41;22.20;58.20
22966;DHT22;11649;48.090;9.754;2022-09-09T13:40:19;22.40;59.20
22966;DHT22;11649;48.090;9.754;2022-09-09T13:42:46;22.60;57.30
22966;DHT22;11649;48.090;9.754;2022-09-09T13:45:19;22.60;57.40
22966;DHT22;11649;48.090;9.754;2022-09-09T13:47:47;22.80;56.10
22966;DHT22;11649;48.090;9.754;2022-09-09T13:50:20;23.10;57.20
22966;DHT22;11649;48.090;9.754;2022-09-09T13:52:57;23.50;53.00
22966;DHT22;11649;48.090;9.754;2022-09-09T13:55:29;24.10;54.70
22966;DHT22;11649;48.090;9.754;2022-09-09T13:58:01;24.80;52.70
22966;DHT22;11649;48.090;9.754;2022-09-09T14:00:33;24.10;53.00
22966;DHT22;11649;48.090;9.754;2022-09-09T14:03:00;24.20;51.40
22966;DHT22;11649;48.090;9.754;2022-09-09T14:05:32;25.50;50.80
22966;DHT22;11649;48.090;9.754;2022-09-09T14:08:00;27.00;47.20
22966;DHT22;11649;48.090;9.754;2022-09-09T14:10:29;27.30;45.80
22966;DHT22;11649;48.090;9.754;2022-09-09T14:12:56;27.90;42.70
22966;DHT22;11649;48.090;9.754;2022-09-09T14:15:23;28.10;42.10
22966;DHT22;11649;48.090;9.754;2022-09-09T14:17:50;28.40;42.80
22966;DHT22;11649;48.090;9.754;2022-09-09T14:20:19;27.80;42.20
22966;DHT22;11649;48.090;9.754;2022-09-09T14:22:45;26.20;45.00
22966;DHT22;11649;48.090;9.754;2022-09-09T14:25:12;25.10;47.30
22966;DHT22;11649;48.090;9.754;2022-09-09T14:27:40;25.20;50.90
22966;DHT22;11649;48.090;9.754;2022-09-09T14:30:07;26.30;44.30
22966;DHT22;11649;48.090;9.754;2022-09-09T14:32:35;25.50;45.20
22966;DHT22;11649;48.090;9.754;2022-09-09T14:35:02;24.50;47.40
22966;DHT22;11649;48.090;9.754;2022-09-09T14:37:28;23.40;50.00
22966;DHT22;11649;48.090;9.754;2022-09-09T14:39:57;23.00;51.80
22966;DHT22;11649;48.090;9.754;2022-09-09T14:42:25;23.50;52.10
22966;DHT22;11649;48.090;9.754;2022-09-09T14:44:53;23.50;52.50
22966;DHT22;11649;48.090;9.754;2022-09-09T14:47:20;23.10;53.70
22966;DHT22;11649;48.090;9.754;2022-09-09T14:49:46;22.60;54.10
22966;DHT22;11649;48.090;9.754;2022-09-09T14:52:16;22.00;55.50
22966;DHT22;11649;48.090;9.754;2022-09-09T14:54:43;21.70;57.80
22966;DHT22;11649;48.090;9.754;2022-09-09T14:57:09;21.60;60.60
22966;DHT22;11649;48.090;9.754;2022-09-09T14:59:36;21.10;65.00
22966;DHT22;11649;48.090;9.754;2022-09-09T15:02:03;21.00;63.70
22966;DHT22;11649;48.090;9.754;2022-09-09T15:04:31;20.80;64.00
22966;DHT22;11649;48.090;9.754;2022-09-09T15:06:58;20.90;65.30
22966;DHT22;11649;48.090;9.754;2022-09-09T15:09:25;20.70;65.00
22966;DHT22;11649;48.090;9.754;2022-09-09T15:11:52;20.60;68.10
22966;DHT22;11649;48.090;9.754;2022-09-09T15:14:18;20.80;69.30
22966;DHT22;11649;48.090;9.754;2022-09-09T15:16:51;21.00;66.50
22966;DHT22;11649;48.090;9.754;2022-09-09T15:19:18;20.90;68.10
22966;DHT22;11649;48.090;9.754;2022-09-09T15:21:44;20.80;67.50
22966;DHT22;11649;48.090;9.754;2022-09-09T15:24:11;20.70;70.20
22966;DHT22;11649;48.090;9.754;2022-09-09T15:26:40;21.20;69.30
22966;DHT22;11649;48.090;9.754;2022-09-09T15:29:07;21.60;63.40
22966;DHT22;11649;48.090;9.754;2022-09-09T15:31:35;21.60;63.60
22966;DHT22;11649;48.090;9.754;2022-09-09T15:34:05;21.70;62.90
22966;DHT22;11649;48.090;9.754;2022-09-09T15:36:34;21.70;61.60
22966;DHT22;11649;48.090;9.754;2022-09-09T15:39:03;21.60;62.80
22966;DHT22;11649;48.090;9.754;2022-09-09T15:41:30;21.40;61.30
22966;DHT22;11649;48.090;9.754;2022-09-09T15:44:00;21.90;60.90
22966;DHT22;11649;48.090;9.754;2022-09-09T15:46:31;23.10;59.10
22966;DHT22;11649;48.090;9.754;2022-09-09T15:49:16;24.20;53.20
22966;DHT22;11649;48.090;9.754;2022-09-09T15:51:56;25.10;50.30
22966;DHT22;11649;48.090;9.754;2022-09-09T15:54:25;24.80;50.50
22966;DHT22;11649;48.090;9.754;2022-09-09T15:56:57;24.50;50.50
22966;DHT22;11649;48.090;9.754;2022-09-09T15:59:26;24.20;52.30
22966;DHT22;11649;48.090;9.754;2022-09-09T16:01:54;22.90;53.70
22966;DHT22;11649;48.090;9.754;2022-09-09T16:04:22;22.20;55.90
22966;DHT22;11649;48.090;9.754;2022-09-09T16:06:55;21.80;57.70
22966;DHT22;11649;48.090;9.754;2022-09-09T16:09:24;21.30;60.50
22966;DHT22;11649;48.090;9.754;2022-09-09T16:11:51;21.30;62.50
22966;DHT22;11649;48.090;9.754;2022-09-09T16:14:19;21.00;62.10
22966;DHT22;11649;48.090;9.754;2022-09-09T16:16:46;20.80;63.70
22966;DHT22;11649;48.090;9.754;2022-09-09T16:19:13;21.00;65.10
22966;DHT22;11649;48.090;9.754;2022-09-09T16:21:42;21.20;65.60
22966;DHT22;11649;48.090;9.754;2022-09-09T16:24:11;21.70;62.40
22966;DHT22;11649;48.090;9.754;2022-09-09T16:26:41;22.20;62.80
22966;DHT22;11649;48.090;9.754;2022-09-09T16:29:09;22.60;63.30
22966;DHT22;11649;48.090;9.754;2022-09-09T16:31:36;22.60;61.70
22966;DHT22;11649;48.090;9.754;2022-09-09T16:34:03;22.00;61.10
22966;DHT22;11649;48.090;9.754;2022-09-09T16:36:32;21.50;61.90
22966;DHT22;11649;48.090;9.754;2022-09-09T16:39:05;21.20;63.00
22966;DHT22;11649;48.090;9.754;2022-09-09T16:41:33;21.10;64.30
22966;DHT22;11649;48.090;9.754;2022-09-09T16:44:02;21.20;64.60
22966;DHT22;11649;48.090;9.754;2022-09-09T16:46:31;20.80;63.80
22966;DHT22;11649;48.090;9.754;2022-09-09T16:49:00;20.70;64.00
22966;DHT22;11649;48.090;9.754;2022-09-09T16:51:32;20.60;65.60
22966;DHT22;11649;48.090;9.754;2022-09-09T16:54:01;20.40;65.90
22966;DHT22;11649;48.090;9.754;2022-09-09T16:56:30;20.30;67.50
22966;DHT22;11649;48.090;9.754;2022-09-09T16:58:59;20.00;69.00
22966;DHT22;11649;48.090;9.754;2022-09-09T17:01:31;19.90;70.10
22966;DHT22;11649;48.090;9.754;2022-09-09T17:04:01;19.90;71.20
22966;DHT22;11649;48.090;9.754;2022-09-09T17:06:29;19.50;73.50
22966;DHT22;11649;48.090;9.754;2022-09-09T17:08:58;19.50;72.80
22966;DHT22;11649;48.090;9.754;2022-09-09T17:11:25;19.40;74.30
22966;DHT22;11649;48.090;9.754;2022-09-09T17:13:53;19.10;76.50
22966;DHT22;11649;48.090;9.754;2022-09-09T17:16:22;18.90;77.50
22966;DHT22;11649;48.090;9.754;2022-09-09T17:18:50;19.90;81.90
22966;DHT22;11649;48.090;9.754;2022-09-09T17:21:19;18.70;76.30
22966;DHT22;11649;48.090;9.754;2022-09-09T17:23:46;19.00;75.40
22966;DHT22;11649;48.090;9.754;2022-09-09T17:26:16;18.50;80.00
22966;DHT22;11649;48.090;9.754;2022-09-09T17:28:44;18.90;82.00
22966;DHT22;11649;48.090;9.754;2022-09-09T17:31:16;18.40;82.00
22966;DHT22;11649;48.090;9.754;2022-09-09T17:33:45;18.20;83.00
22966;DHT22;11649;48.090;9.754;2022-09-09T17:36:17;18.30;87.10
22966;DHT22;11649;48.090;9.754;2022-09-09T17:38:44;18.10;87.60
22966;DHT22;11649;48.090;9.754;2022-09-09T17:41:21;18.00;88.40
22966;DHT22;11649;48.090;9.754;2022-09-09T17:43:48;18.00;86.90